Time;durP1;ratioP1;P1;durP2;ratioP2;P2;SDS_P1;SDS_P2;PMS_P1;PMS_P2;Temp;Humidity;BMP_temperature;BMP_pressure;BME280_temperature;BME280_humidity;BME280_pressure;Samples;Min_cycle;Max_cycle;Signal;HPM_P1;HPM_P2
2022/06/11 00:01:16;;;;;;;13.57;4.03;;;;;;;18.65;53.37;102041.41;5192339;28;20429;-38
2022/06/11 00:03:51;;;;;;;17.65;3.88;;;;;;;18.67;53.35;102035.88;5203637;28;20812;-37
2022/06/11 00:06:26;;;;;;;18.83;4.90;;;;;;;18.42;53.48;102011.88;5207050;28;20409;-37
2022/06/11 00:08:58;;;;;;;14.23;4.43;;;;;;;18.58;53.35;102036.91;5210816;28;20481;-38
2022/06/11 00:11:31;;;;;;;22.48;4.43;;;;;;;18.19;53.61;101984.25;5208193;28;20425;-39
2022/06/11 00:14:06;;;;;;;18.85;4.65;;;;;;;18.58;53.65;102043.13;5209470;28;20873;-38
2022/06/11 00:16:42;;;;;;;14.23;3.80;;;;;;;18.39;53.71;102016.75;5189644;28;20440;-43
2022/06/11 00:19:18;;;;;;;16.80;4.80;;;;;;;18.53;53.70;102044.66;5202973;28;20421;-37
2022/06/11 00:21:54;;;;;;;21.48;5.15;;;;;;;18.46;53.80;102043.66;5199269;28;20504;-38
2022/06/11 00:24:31;;;;;;;21.02;4.47;;;;;;;18.42;53.97;102038.63;5186167;28;21553;-42
2022/06/11 00:27:05;;;;;;;16.63;4.30;;;;;;;18.45;53.87;102050.84;5207484;28;21051;-36
2022/06/11 00:29:42;;;;;;;15.80;4.63;;;;;;;18.36;54.00;102047.34;5203735;28;20471;-39
2022/06/11 00:32:15;;;;;;;15.57;4.65;;;;;;;18.34;54.16;102044.03;5205252;28;20421;-36
2022/06/11 00:34:48;;;;;;;15.00;4.50;;;;;;;18.07;54.32;102004.31;5206185;28;20940;-40
2022/06/11 00:37:20;;;;;;;15.73;4.72;;;;;;;18.18;54.13;102046.75;5204234;28;20432;-37
2022/06/11 00:39:53;;;;;;;15.48;3.97;;;;;;;18.26;54.37;102038.69;5206485;28;20432;-38
2022/06/11 00:42:29;;;;;;;17.42;4.40;;;;;;;18.25;54.37;102046.91;5201872;28;20521;-36
2022/06/11 00:45:22;;;;;;;15.80;4.77;;;;;;;18.18;54.73;102044.91;5202028;28;20471;-38
2022/06/11 00:48:00;;;;;;;23.77;4.55;;;;;;;18.13;54.75;102038.41;5209580;28;20417;-37
2022/06/11 00:50:38;;;;;;;15.02;4.45;;;;;;;18.05;54.87;102031.22;5204931;28;20417;-38
2022/06/11 00:53:17;;;;;;;18.50;4.32;;;;;;;18.09;54.89;102043.25;5201617;28;20536;-38
2022/06/11 00:55:51;;;;;;;15.02;4.55;;;;;;;17.94;54.94;102013.72;5207617;28;20417;-37
2022/06/11 00:58:28;;;;;;;18.27;4.00;;;;;;;17.97;55.25;102024.06;5203818;28;20861;-37
2022/06/11 01:01:02;;;;;;;17.58;5.03;;;;;;;18.02;55.15;102034.22;5204712;28;20420;-36
2022/06/11 01:03:41;;;;;;;14.38;4.00;;;;;;;17.99;55.37;102026.53;5202896;28;20504;-38
2022/06/11 01:06:20;;;;;;;18.83;4.85;;;;;;;17.96;55.44;102030.41;5202827;28;20500;-37
2022/06/11 01:09:00;;;;;;;19.13;4.18;;;;;;;17.95;55.38;102039.41;5206578;28;20447;-37
2022/06/11 01:11:52;;;;;;;19.95;4.75;;;;;;;17.81;55.54;102017.88;5199738;28;20921;-37
2022/06/11 01:14:41;;;;;;;17.95;4.68;;;;;;;17.74;55.58;102023.03;5199537;28;20425;-38
2022/06/11 01:17:26;;;;;;;22.42;5.00;;;;;;;17.87;55.65;102036.78;5201972;28;20763;-37
2022/06/11 01:20:19;;;;;;;17.98;5.53;;;;;;;17.68;55.91;102013.88;5208494;28;20500;-37
2022/06/11 01:23:33;;;;;;;19.55;4.65;;;;;;;17.77;56.14;102032.56;5190614;28;20501;-39
2022/06/11 01:26:37;;;;;;;18.73;4.63;;;;;;;17.63;56.45;102010.03;5187094;28;20882;-37
2022/06/11 01:29:47;;;;;;;15.60;5.13;;;;;;;17.66;56.46;102026.56;5184865;28;20410;-37
2022/06/11 01:32:33;;;;;;;21.90;5.25;;;;;;;17.60;56.67;102026.41;5204390;28;20425;-39
2022/06/11 01:35:20;;;;;;;18.63;4.88;;;;;;;17.58;56.75;102023.88;5202845;28;20485;-37
2022/06/11 01:38:02;;;;;;;25.08;5.20;;;;;;;17.48;56.76;102013.38;5203158;28;20972;-45
2022/06/11 01:40:45;;;;;;;18.08;5.25;;;;;;;17.56;56.70;102014.34;5208175;28;20412;-37
2022/06/11 01:43:25;;;;;;;27.77;5.88;;;;;;;17.55;57.03;102020.72;5201692;28;20452;-40
2022/06/11 01:46:02;;;;;;;21.40;5.00;;;;;;;17.51;56.88;102023.72;5199162;28;28536;-37
2022/06/11 01:48:35;;;;;;;16.90;5.78;;;;;;;17.47;56.93;102010.88;5204296;28;20409;-37
2022/06/11 01:51:23;;;;;;;26.63;6.28;;;;;;;17.49;57.03;102017.69;5192199;28;20421;-37
2022/06/11 01:54:21;;;;;;;24.05;6.05;;;;;;;17.50;57.18;102022.06;5203217;28;20409;-36
2022/06/11 01:57:36;;;;;;;17.80;6.28;;;;;;;17.49;57.33;102030.22;5203431;28;20417;-38
2022/06/11 02:00:19;;;;;;;21.17;5.77;;;;;;;17.43;57.35;102030.88;5193451;28;20416;-38
2022/06/11 02:03:15;;;;;;;20.15;5.00;;;;;;;17.42;57.50;102032.72;5202218;28;20425;-38
2022/06/11 02:06:15;;;;;;;16.80;4.70;;;;;;;17.19;57.32;102007.69;5197328;28;20781;-40
2022/06/11 02:09:03;;;;;;;20.45;5.70;;;;;;;17.22;57.44;102007.34;5197811;28;20957;-37
2022/06/11 02:11:42;;;;;;;21.15;6.00;;;;;;;17.36;57.38;102028.03;5206441;28;20414;-40
2022/06/11 02:14:23;;;;;;;20.27;6.03;;;;;;;17.27;57.35;102018.34;5196891;28;20421;-37
2022/06/11 02:16:59;;;;;;;19.65;5.60;;;;;;;17.34;57.46;102032.69;5200048;28;20518;-43
2022/06/11 02:19:38;;;;;;;25.63;5.82;;;;;;;17.35;57.39;102034.41;5199453;28;20481;-39
2022/06/11 02:22:16;;;;;;;24.95;5.75;;;;;;;17.31;57.35;102043.72;5202093;28;20405;-37
2022/06/11 02:24:57;;;;;;;24.85;6.18;;;;;;;17.28;57.51;102039.56;5202450;28;20425;-37
2022/06/11 02:27:32;;;;;;;28.38;5.43;;;;;;;17.28;57.41;102033.38;5201728;28;20397;-37
2022/06/11 02:30:09;;;;;;;25.98;6.35;;;;;;;17.26;57.37;102078.09;5203212;28;20468;-36
2022/06/11 02:32:45;;;;;;;24.17;6.10;;;;;;;17.15;57.28;102028.50;5203058;28;20960;-38
2022/06/11 02:35:31;;;;;;;28.95;6.28;;;;;;;17.18;57.43;102038.03;5204887;28;20460;-37
2022/06/11 02:38:06;;;;;;;28.55;5.80;;;;;;;17.14;57.46;102034.03;5205488;28;20510;-37
2022/06/11 02:40:42;;;;;;;34.20;6.80;;;;;;;17.14;57.42;102031.34;5200424;28;20520;-38
2022/06/11 02:43:15;;;;;;;25.13;5.97;;;;;;;16.53;57.23;101979.94;5187494;28;20765;-37
2022/06/11 02:45:48;;;;;;;29.83;6.28;;;;;;;17.02;57.51;102023.66;5185714;28;20941;-38
2022/06/11 02:48:21;;;;;;;25.17;5.85;;;;;;;17.02;57.50;102044.16;5201436;28;20452;-37
2022/06/11 02:50:54;;;;;;;30.23;6.75;;;;;;;16.96;57.69;102028.81;5205201;28;20435;-37
2022/06/11 02:53:27;;;;;;;24.58;6.15;;;;;;;17.03;57.66;102044.03;5202261;28;20527;-37
2022/06/11 02:55:59;;;;;;;27.58;5.53;;;;;;;17.05;57.67;102049.19;5203348;28;20405;-39
2022/06/11 02:58:32;;;;;;;27.90;6.20;;;;;;;17.02;57.64;102086.88;5201968;28;20901;-38
2022/06/11 03:01:04;;;;;;;29.75;6.25;;;;;;;17.01;57.61;102054.00;5203547;28;20406;-37
2022/06/11 03:03:38;;;;;;;27.70;6.60;;;;;;;16.99;57.78;102058.66;5205048;28;20416;-37
2022/06/11 03:06:11;;;;;;;30.45;6.63;;;;;;;16.99;57.75;102071.19;5198870;28;20416;-38
2022/06/11 03:08:44;;;;;;;26.05;6.43;;;;;;;16.96;57.87;102059.00;5203615;28;20433;-36
2022/06/11 03:11:17;;;;;;;28.92;6.68;;;;;;;16.95;57.97;102068.00;5204641;28;20413;-38
2022/06/11 03:13:50;;;;;;;30.33;7.22;;;;;;;16.89;57.85;102060.66;5201850;28;20457;-36
2022/06/11 03:16:24;;;;;;;33.63;7.68;;;;;;;16.84;58.01;102046.94;5201750;28;20603;-39
2022/06/11 03:18:56;;;;;;;29.80;7.72;;;;;;;16.89;58.05;102057.97;5203496;28;20425;-38
2022/06/11 03:21:30;;;;;;;28.83;6.18;;;;;;;16.94;57.99;102069.00;5201771;28;20947;-38
2022/06/11 03:24:03;;;;;;;29.50;7.35;;;;;;;16.87;58.09;102072.47;5199803;28;20409;-43
2022/06/11 03:26:36;;;;;;;25.60;5.93;;;;;;;16.89;58.09;102065.97;5206394;28;20428;-38
2022/06/11 03:29:08;;;;;;;27.63;6.72;;;;;;;16.89;58.27;102081.16;5198064;28;20431;-38
2022/06/11 03:31:41;;;;;;;30.40;7.10;;;;;;;16.90;58.27;102083.66;5204334;28;20461;-37
2022/06/11 03:34:14;;;;;;;25.20;6.55;;;;;;;16.88;58.37;102091.00;5201210;28;20417;-40
2022/06/11 03:36:52;;;;;;;23.98;6.03;;;;;;;16.88;58.25;102101.69;5206426;28;20429;-41
2022/06/11 03:39:25;;;;;;;22.73;6.05;;;;;;;16.88;58.43;102088.34;5182988;28;20435;-36
2022/06/11 03:41:58;;;;;;;25.90;6.80;;;;;;;16.91;58.48;102090.69;5203243;28;21318;-37
2022/06/11 03:44:37;;;;;;;30.67;6.83;;;;;;;16.93;58.45;102090.50;5208668;28;20484;-37
2022/06/11 03:47:09;;;;;;;31.30;7.53;;;;;;;16.93;58.56;102099.34;5202388;28;20762;-37
2022/06/11 03:49:42;;;;;;;30.23;7.80;;;;;;;16.94;58.63;102095.69;5208739;28;20440;-36
2022/06/11 03:52:16;;;;;;;34.20;8.18;;;;;;;16.97;58.61;102100.72;5207187;28;20418;-36
2022/06/11 03:54:48;;;;;;;31.90;7.35;;;;;;;17.01;58.64;102112.72;5196848;28;20997;-35
2022/06/11 03:57:20;;;;;;;24.85;6.55;;;;;;;17.01;58.84;102112.72;5204884;28;20429;-38
2022/06/11 03:59:53;;;;;;;29.58;7.80;;;;;;;17.04;58.58;102116.91;5207268;28;20425;-36
2022/06/11 04:02:26;;;;;;;28.38;7.38;;;;;;;17.08;58.76;102112.09;5202332;28;20680;-36
2022/06/11 04:05:00;;;;;;;33.25;6.95;;;;;;;17.14;58.86;102122.13;5204863;28;20441;-36
2022/06/11 04:07:35;;;;;;;38.25;7.32;;;;;;;17.16;58.88;102120.13;5203952;28;20597;-37
2022/06/11 04:10:10;;;;;;;37.25;7.35;;;;;;;17.18;58.83;102118.13;5204031;28;20410;-37
2022/06/11 04:12:42;;;;;;;31.63;6.95;;;;;;;17.21;58.90;102117.78;5201877;28;20426;-37
2022/06/11 04:15:15;;;;;;;40.30;8.30;;;;;;;17.26;58.55;102132.34;5203898;28;20424;-37
2022/06/11 04:17:47;;;;;;;32.08;6.68;;;;;;;16.69;58.92;102027.19;5203754;28;20820;-38
2022/06/11 04:20:20;;;;;;;38.38;7.75;;;;;;;17.28;58.91;102113.47;5203646;28;20417;-38
2022/06/11 04:22:57;;;;;;;30.98;7.50;;;;;;;17.30;59.08;102127.50;5201531;28;20611;-37
2022/06/11 04:25:29;;;;;;;39.65;8.93;;;;;;;17.39;59.15;102126.53;5207790;28;20878;-36
2022/06/11 04:28:02;;;;;;;32.25;8.07;;;;;;;17.45;59.10;102136.56;5206315;28;20475;-38
2022/06/11 04:30:34;;;;;;;36.55;8.30;;;;;;;17.49;59.09;102126.38;5203735;28;20458;-42
2022/06/11 04:33:07;;;;;;;28.70;7.43;;;;;;;17.58;59.10;102135.25;5206009;28;20424;-38
2022/06/11 04:35:40;;;;;;;30.10;7.32;;;;;;;17.71;59.08;102140.94;5203664;28;20421;-36
2022/06/11 04:38:14;;;;;;;37.25;8.60;;;;;;;17.81;59.08;102147.00;5198707;28;20516;-37
2022/06/11 04:40:47;;;;;;;32.15;8.13;;;;;;;17.91;58.93;102146.84;5204218;28;20410;-38
2022/06/11 04:43:20;;;;;;;27.38;7.13;;;;;;;18.02;58.63;102149.19;5203121;28;20413;-38
2022/06/11 04:45:52;;;;;;;34.55;7.85;;;;;;;18.14;58.55;102147.00;5203946;28;20413;-38
2022/06/11 04:48:28;;;;;;;35.20;8.38;;;;;;;18.27;58.75;102157.19;5205066;28;20494;-39
2022/06/11 04:51:01;;;;;;;33.30;8.02;;;;;;;18.30;58.71;102148.84;5205854;28;20540;-37
2022/06/11 04:53:35;;;;;;;40.60;8.70;;;;;;;18.42;58.58;102153.66;5205750;28;20436;-36
2022/06/11 04:56:08;;;;;;;30.58;7.35;;;;;;;18.51;58.58;102148.31;5203820;28;20439;-37
2022/06/11 04:58:42;;;;;;;37.78;9.73;;;;;;;18.61;58.48;102162.31;5198272;28;20483;-38
2022/06/11 05:01:15;;;;;;;31.95;7.43;;;;;;;18.61;58.49;102155.16;5203995;28;20417;-39
2022/06/11 05:03:48;;;;;;;36.00;8.43;;;;;;;18.74;58.33;102160.00;5203591;28;20450;-38
2022/06/11 05:06:24;;;;;;;32.30;7.28;;;;;;;19.02;58.06;102151.56;5205654;28;20856;-38
2022/06/11 05:08:58;;;;;;;41.00;7.68;;;;;;;20.05;56.76;102143.22;5201722;28;20781;-40
2022/06/11 05:11:33;;;;;;;27.92;7.53;;;;;;;21.39;55.40;102146.81;5205211;28;20889;-40
2022/06/11 05:14:06;;;;;;;24.40;5.95;;;;;;;22.46;54.07;102149.47;5205616;28;20452;-37
2022/06/11 05:16:41;;;;;;;33.58;7.60;;;;;;;23.23;53.41;102166.50;5201610;28;20524;-37
2022/06/11 05:19:16;;;;;;;30.85;6.90;;;;;;;23.82;52.42;102144.28;5195312;28;20434;-38
2022/06/11 05:21:53;;;;;;;31.48;7.10;;;;;;;24.78;51.33;102162.69;5203888;28;20409;-41
2022/06/11 05:24:29;;;;;;;29.60;6.15;;;;;;;25.73;50.02;102168.28;5203206;28;20850;-38
2022/06/11 05:27:08;;;;;;;27.65;6.20;;;;;;;26.28;49.07;102164.97;5201305;28;20480;-38
2022/06/11 05:29:49;;;;;;;30.45;7.50;;;;;;;27.01;47.98;102172.38;5201773;28;20524;-38
2022/06/11 05:32:24;;;;;;;30.37;7.00;;;;;;;27.50;46.91;102173.22;5199321;28;20520;-39
2022/06/11 05:34:58;;;;;;;29.92;6.47;;;;;;;28.11;46.27;102175.84;5203938;28;20462;-39
2022/06/11 05:37:31;;;;;;;24.23;5.40;;;;;;;28.31;45.61;102168.19;5202198;28;20416;-40
2022/06/11 05:40:08;;;;;;;24.08;5.95;;;;;;;28.66;44.98;102180.97;5205185;28;20503;-39
2022/06/11 05:42:41;;;;;;;25.40;5.57;;;;;;;29.12;44.15;102173.78;5202554;28;20548;-39
2022/06/11 05:45:14;;;;;;;26.75;6.65;;;;;;;29.77;43.09;102178.84;5203354;28;20425;-41
2022/06/11 05:47:48;;;;;;;27.83;6.33;;;;;;;30.38;42.14;102175.44;5204507;28;20413;-39
2022/06/11 05:50:26;;;;;;;25.75;6.18;;;;;;;30.89;41.23;102176.19;5187782;28;20431;-38
2022/06/11 05:53:01;;;;;;;28.52;6.28;;;;;;;31.21;40.75;102188.00;5188628;28;20770;-39
2022/06/11 05:55:40;;;;;;;27.95;5.97;;;;;;;31.67;39.80;102183.03;5203819;28;20444;-40
2022/06/11 05:58:16;;;;;;;24.45;5.50;;;;;;;32.25;38.93;102177.81;5204683;28;20436;-39
2022/06/11 06:00:49;;;;;;;23.85;5.80;;;;;;;32.77;38.35;102176.22;5201105;28;20419;-41
2022/06/11 06:03:22;;;;;;;23.17;5.75;;;;;;;33.03;37.52;102183.44;5192663;28;20425;-43
2022/06/11 06:05:54;;;;;;;25.80;5.63;;;;;;;33.31;36.97;102189.53;5205394;28;20425;-42
2022/06/11 06:08:29;;;;;;;23.15;5.53;;;;;;;33.65;36.54;102178.13;5208584;28;20807;-38
2022/06/11 06:11:02;;;;;;;24.10;5.53;;;;;;;34.09;35.53;102167.44;5205663;28;20437;-39
2022/06/11 06:13:48;;;;;;;22.50;4.70;;;;;;;34.75;35.11;102184.81;5207093;28;20420;-41
2022/06/11 06:16:22;;;;;;;20.23;5.68;;;;;;;35.18;34.45;102183.25;5203660;28;20419;-41
2022/06/11 06:19:02;;;;;;;22.58;5.28;;;;;;;35.41;33.84;102172.69;5195574;28;20422;-41
2022/06/11 06:21:37;;;;;;;21.95;5.57;;;;;;;35.64;33.44;102174.72;5204562;28;20775;-40
2022/06/11 06:24:10;;;;;;;19.45;4.93;;;;;;;35.85;33.14;102188.31;5202078;28;20838;-40
2022/06/11 06:26:44;;;;;;;23.63;5.23;;;;;;;36.12;32.62;102201.56;5207376;28;20420;-40
2022/06/11 06:29:16;;;;;;;24.92;5.88;;;;;;;36.36;32.06;102187.81;5204054;28;20413;-39
2022/06/11 06:31:48;;;;;;;18.67;4.93;;;;;;;36.75;31.56;102195.13;5206782;28;20409;-41
2022/06/11 06:34:21;;;;;;;23.08;5.05;;;;;;;36.96;31.10;102201.19;5208725;28;20512;-42
2022/06/11 06:36:53;;;;;;;23.25;5.45;;;;;;;37.12;31.02;102188.88;5204672;28;20444;-39
2022/06/11 06:39:25;;;;;;;19.30;4.75;;;;;;;37.14;30.51;102201.22;5205292;28;20445;-38
2022/06/11 06:41:59;;;;;;;16.52;4.70;;;;;;;37.01;30.49;102190.97;5213805;28;25546;-38
2022/06/11 06:44:32;;;;;;;19.00;5.20;;;;;;;37.22;30.15;102207.19;5207974;28;20955;-39
2022/06/11 06:47:05;;;;;;;21.50;5.38;;;;;;;37.37;29.95;102204.19;5206447;28;20405;-42
2022/06/11 06:49:37;;;;;;;19.02;4.40;;;;;;;37.57;29.60;102214.94;5201601;28;20409;-40
2022/06/11 06:52:10;;;;;;;19.25;4.93;;;;;;;37.74;29.35;102205.31;5205684;28;20435;-39
2022/06/11 06:54:42;;;;;;;18.52;4.63;;;;;;;37.83;29.14;102211.75;5208880;28;20425;-40
2022/06/11 06:57:16;;;;;;;17.33;4.97;;;;;;;37.79;28.79;102211.56;5208675;28;20440;-39
2022/06/11 06:59:48;;;;;;;22.15;4.78;;;;;;;37.87;28.79;102228.53;5196807;28;20899;-40
2022/06/11 07:02:21;;;;;;;28.67;5.93;;;;;;;37.77;28.71;102229.50;5201491;28;20538;-40
2022/06/11 07:04:53;;;;;;;22.20;5.53;;;;;;;37.11;28.64;102152.25;5212333;28;20405;-39
2022/06/11 07:07:26;;;;;;;19.25;4.90;;;;;;;37.64;28.58;102224.78;5211616;28;20447;-40
2022/06/11 07:09:59;;;;;;;16.77;4.25;;;;;;;37.51;28.67;102194.09;5211595;28;21836;-39
2022/06/11 07:12:32;;;;;;;26.25;5.60;;;;;;;37.61;28.35;102215.97;5212839;28;20409;-41
2022/06/11 07:15:07;;;;;;;16.38;4.90;;;;;;;37.60;28.31;102197.81;5211918;28;20413;-39
2022/06/11 07:17:45;;;;;;;15.30;5.00;;;;;;;37.87;28.15;102212.78;5208209;28;20413;-42
2022/06/11 07:20:22;;;;;;;20.27;5.35;;;;;;;37.99;28.00;102221.44;5209137;28;20427;-39
2022/06/11 07:22:58;;;;;;;16.63;4.57;;;;;;;38.05;27.73;102222.97;5189134;28;20419;-39
2022/06/11 07:25:34;;;;;;;30.60;5.90;;;;;;;37.97;27.98;102223.69;5203247;28;20512;-40
2022/06/11 07:28:14;;;;;;;12.85;4.03;;;;;;;37.75;28.14;102223.47;5210408;28;20593;-44
2022/06/11 07:30:47;;;;;;;18.75;4.45;;;;;;;37.60;28.05;102225.38;5207262;28;20512;-39
2022/06/11 07:33:24;;;;;;;18.63;5.05;;;;;;;37.43;28.14;102222.28;5181812;28;20508;-42
2022/06/11 07:35:57;;;;;;;16.67;4.07;;;;;;;37.15;28.18;102219.38;5187938;28;20928;-39
2022/06/11 07:38:30;;;;;;;16.77;4.43;;;;;;;37.07;28.48;102239.34;5189346;28;20461;-40
2022/06/11 07:41:02;;;;;;;18.40;4.95;;;;;;;36.92;28.45;102225.75;5186012;28;20490;-40
2022/06/11 07:43:36;;;;;;;16.20;4.75;;;;;;;36.91;28.54;102229.59;5185817;28;20468;-39
2022/06/11 07:46:08;;;;;;;19.13;4.82;;;;;;;36.79;28.61;102226.44;5183561;28;20495;-43
2022/06/11 07:48:41;;;;;;;16.00;4.65;;;;;;;36.55;28.83;102226.47;5185614;28;20411;-41
2022/06/11 07:51:44;;;;;;;18.73;5.15;;;;;;;36.49;28.57;102233.94;5184772;28;20486;-39
2022/06/11 07:54:17;;;;;;;13.40;4.53;;;;;;;36.31;28.95;102240.16;5159299;28;20551;-40
2022/06/11 07:56:49;;;;;;;17.00;4.95;;;;;;;36.12;28.94;102243.66;5185756;28;20501;-40
2022/06/11 07:59:23;;;;;;;19.58;4.90;;;;;;;35.87;29.19;102235.59;5185872;28;20774;-40
2022/06/11 08:01:55;;;;;;;21.65;5.00;;;;;;;35.75;29.14;102242.28;5184326;28;20450;-39
2022/06/11 08:04:28;;;;;;;16.73;4.30;;;;;;;35.55;29.13;102245.16;5181528;28;20445;-43
2022/06/11 08:07:00;;;;;;;16.00;4.65;;;;;;;35.44;29.13;102246.31;5183442;28;20473;-40
2022/06/11 08:09:33;;;;;;;22.02;4.70;;;;;;;35.42;29.40;102248.50;5181444;28;20434;-42
2022/06/11 08:12:07;;;;;;;17.40;4.30;;;;;;;35.23;29.35;102257.41;5181309;28;20491;-44
2022/06/11 08:14:41;;;;;;;12.65;4.07;;;;;;;35.20;29.23;102252.47;5181658;28;20812;-40
2022/06/11 08:17:14;;;;;;;17.27;4.15;;;;;;;34.91;29.21;102232.28;5183634;28;20439;-41
2022/06/11 08:19:47;;;;;;;44.40;7.75;;;;;;;34.82;29.36;102246.56;5186229;28;20411;-43
2022/06/11 08:22:20;;;;;;;21.20;4.82;;;;;;;34.60;29.30;102259.81;5183459;28;20574;-39
2022/06/11 08:24:52;;;;;;;14.20;3.47;;;;;;;34.46;29.53;102255.94;5184987;28;20427;-44
2022/06/11 08:27:25;;;;;;;14.07;4.00;;;;;;;34.26;29.34;102254.06;5184681;28;20415;-39
2022/06/11 08:33:57;;;;;;;23.80;5.28;;;;;;;33.75;29.46;102243.88;5201805;28;20413;-42
2022/06/11 08:36:29;;;;;;;17.48;4.40;;;;;;;33.68;29.53;102270.72;5193548;23;20660;-43
2022/06/11 08:39:02;;;;;;;28.87;5.27;;;;;;;33.30;29.33;102228.97;5194534;28;20898;-41
2022/06/11 08:41:36;;;;;;;17.38;4.07;;;;;;;33.07;29.42;102216.56;5189830;28;20423;-41
2022/06/11 08:44:12;;;;;;;16.33;4.30;;;;;;;33.22;29.46;102254.13;5189169;28;20401;-42
2022/06/11 08:46:48;;;;;;;34.63;6.05;;;;;;;33.19;29.53;102251.94;5196585;28;20441;-42
2022/06/11 08:49:36;;;;;;;21.30;4.40;;;;;;;33.15;29.38;102257.13;5196101;28;20417;-40
2022/06/11 08:52:13;;;;;;;14.13;3.53;;;;;;;33.04;29.19;102245.28;5192748;28;20418;-40
2022/06/11 08:54:47;;;;;;;34.83;5.97;;;;;;;32.92;29.17;102241.94;5191942;28;20562;-42
2022/06/11 08:57:28;;;;;;;17.90;4.50;;;;;;;32.94;29.13;102250.69;5181810;28;20789;-40
2022/06/11 09:00:13;;;;;;;14.97;3.50;;;;;;;32.89;29.02;102264.38;5190830;28;20420;-42
2022/06/11 09:03:25;;;;;;;16.33;4.17;;;;;;;32.85;29.08;102257.75;5188534;28;20507;-40
2022/06/11 09:06:32;;;;;;;26.75;4.60;;;;;;;32.62;29.15;102259.00;5185860;28;20424;-40
2022/06/11 09:09:12;;;;;;;13.68;3.67;;;;;;;32.43;28.82;102266.78;5196523;28;20420;-38
2022/06/11 09:12:24;;;;;;;22.60;4.43;;;;;;;32.24;28.82;102260.06;5198734;28;20471;-40
2022/06/11 09:15:19;;;;;;;14.77;3.70;;;;;;;32.01;29.18;102259.34;5198340;28;21143;-39
2022/06/11 09:18:20;;;;;;;24.63;4.63;;;;;;;31.78;29.09;102254.19;5202081;28;20579;-40
2022/06/11 09:21:02;;;;;;;19.92;4.18;;;;;;;31.69;29.16;102253.81;5201711;28;21064;-40
2022/06/11 09:23:58;;;;;;;15.55;3.60;;;;;;;31.69;29.01;102256.53;5196972;28;20437;-38
2022/06/11 09:26:46;;;;;;;15.30;3.72;;;;;;;31.60;28.72;102253.44;5201056;28;20425;-41
2022/06/11 09:29:29;;;;;;;14.23;3.95;;;;;;;31.56;29.00;102263.25;5200935;28;20496;-42
2022/06/11 09:32:12;;;;;;;18.38;4.40;;;;;;;31.44;28.64;102260.66;5202169;28;20435;-41
2022/06/11 09:34:51;;;;;;;15.75;3.42;;;;;;;31.38;28.71;102256.22;5201594;28;20414;-41
2022/06/11 09:37:34;;;;;;;17.52;4.15;;;;;;;31.36;29.01;102263.00;5204441;28;20864;-42
2022/06/11 09:40:16;;;;;;;15.70;3.38;;;;;;;31.36;28.87;102263.81;5203017;28;20867;-39
2022/06/11 09:43:05;;;;;;;15.60;3.47;;;;;;;31.26;29.11;102268.31;5198939;28;20898;-39
2022/06/11 09:45:45;;;;;;;14.80;3.93;;;;;;;31.06;29.08;102263.41;5205679;28;20971;-39
2022/06/11 09:48:31;;;;;;;20.23;4.38;;;;;;;31.01;29.12;102275.09;5202936;28;20409;-40
2022/06/11 09:51:12;;;;;;;18.92;3.50;;;;;;;30.91;29.20;102261.28;5207838;28;20547;-40
2022/06/11 09:53:59;;;;;;;14.13;4.32;;;;;;;30.84;29.25;102274.31;5201360;28;20499;-40
2022/06/11 09:56:39;;;;;;;15.20;3.75;;;;;;;30.74;29.27;102278.50;5204326;28;20416;-41
2022/06/11 09:59:26;;;;;;;16.95;4.13;;;;;;;30.76;29.03;102270.91;5201522;28;20496;-40
2022/06/11 10:02:09;;;;;;;16.65;4.18;;;;;;;30.68;29.10;102271.31;5204068;28;20631;-40
2022/06/11 10:04:46;;;;;;;19.17;4.13;;;;;;;30.73;29.22;102276.03;5202156;28;24944;-41
2022/06/11 10:07:24;;;;;;;14.65;3.30;;;;;;;30.64;29.23;102267.44;5204198;28;20759;-40
2022/06/11 10:10:03;;;;;;;13.48;3.42;;;;;;;30.52;29.24;102272.19;5193879;28;20441;-39
2022/06/11 10:12:44;;;;;;;17.90;4.67;;;;;;;30.49;29.23;102275.41;5190954;28;20621;-40
2022/06/11 10:15:23;;;;;;;20.60;3.92;;;;;;;30.47;29.46;102278.34;5190251;28;21093;-42
2022/06/11 10:18:20;;;;;;;13.45;4.38;;;;;;;30.47;29.44;102277.53;5188993;28;20429;-39
2022/06/11 10:20:55;;;;;;;20.02;3.22;;;;;;;30.50;29.30;102287.94;5194467;28;20420;-39
2022/06/11 10:23:36;;;;;;;16.63;3.78;;;;;;;30.54;29.48;102283.66;5192876;28;20425;-40
2022/06/11 10:26:14;;;;;;;15.32;4.18;;;;;;;30.54;29.44;102283.66;5185147;28;21297;-41
2022/06/11 10:28:58;;;;;;;19.23;4.82;;;;;;;30.51;29.61;102284.16;5188981;28;20512;-40
2022/06/11 10:31:36;;;;;;;16.33;3.40;;;;;;;30.01;29.69;102214.09;5175308;28;20553;-39
2022/06/11 10:34:15;;;;;;;20.27;4.88;;;;;;;30.43;29.79;102288.13;5188087;28;20536;-38
2022/06/11 10:36:54;;;;;;;16.52;3.97;;;;;;;30.39;29.71;102292.44;5187593;28;20414;-39
2022/06/11 10:39:33;;;;;;;15.00;3.27;;;;;;;30.39;29.81;102283.44;5191547;28;20418;-40
2022/06/11 10:42:12;;;;;;;19.05;4.72;;;;;;;30.39;29.82;102291.59;5190098;28;20441;-40
2022/06/11 10:44:49;;;;;;;18.40;4.20;;;;;;;30.33;29.89;102261.53;5177025;28;20433;-39
2022/06/11 10:47:26;;;;;;;14.97;4.07;;;;;;;30.44;29.81;102286.22;5194017;28;20430;-40
2022/06/11 10:50:16;;;;;;;20.40;4.25;;;;;;;30.45;29.67;102279.72;5191332;28;20390;-39
2022/06/11 10:52:56;;;;;;;22.38;4.90;;;;;;;30.26;29.52;102265.50;5194440;28;20434;-40
2022/06/11 10:55:36;;;;;;;20.63;4.68;;;;;;;30.40;29.80;102276.88;5186257;28;23448;-44
2022/06/11 10:58:18;;;;;;;20.50;4.82;;;;;;;30.38;29.86;102274.41;5189500;28;20600;-39
2022/06/11 11:00:57;;;;;;;16.77;4.88;;;;;;;30.54;29.71;102283.66;5192546;28;20528;-39
2022/06/11 11:03:40;;;;;;;15.27;3.60;;;;;;;30.47;29.68;102261.19;5188321;28;20512;-42
2022/06/11 11:06:26;;;;;;;15.95;4.03;;;;;;;30.21;30.11;102279.84;5185815;28;20649;-43
2022/06/11 11:09:04;;;;;;;16.67;4.20;;;;;;;29.99;30.25;102270.72;5192868;28;20505;-42
2022/06/11 11:11:43;;;;;;;20.08;3.70;;;;;;;29.85;30.35;102271.00;5190293;28;20686;-41
2022/06/11 11:14:19;;;;;;;16.83;3.40;;;;;;;30.00;30.19;102277.81;5161692;28;20830;-38
2022/06/11 11:16:54;;;;;;;17.75;4.00;;;;;;;29.97;30.19;102273.69;5183902;28;20435;-40
2022/06/11 11:19:29;;;;;;;17.67;3.72;;;;;;;30.11;29.98;102279.66;5184973;28;20430;-40
2022/06/11 11:22:16;;;;;;;14.68;3.67;;;;;;;30.06;30.06;102276.84;5179159;28;20428;-39
2022/06/11 11:24:52;;;;;;;18.80;4.53;;;;;;;30.12;29.93;102275.84;5176956;28;20474;-41
2022/06/11 11:27:29;;;;;;;16.17;4.10;;;;;;;29.91;29.85;102238.44;5182973;28;20527;-39
2022/06/11 11:30:14;;;;;;;18.93;3.73;;;;;;;30.04;29.89;102273.53;5179817;28;20787;-38
2022/06/11 11:32:49;;;;;;;20.75;4.25;;;;;;;30.07;29.79;102273.03;5183784;28;20415;-40
2022/06/11 11:35:26;;;;;;;18.77;4.32;;;;;;;30.10;29.90;102272.53;5194968;28;20538;-39
2022/06/11 11:38:01;;;;;;;18.50;4.18;;;;;;;30.09;29.82;102268.16;5200325;28;20425;-39
2022/06/11 11:40:53;;;;;;;19.50;3.97;;;;;;;30.21;29.71;102274.41;5192756;28;20571;-42
2022/06/11 11:43:34;;;;;;;20.92;4.68;;;;;;;30.28;29.49;102264.16;5193184;28;20424;-37
2022/06/11 11:46:12;;;;;;;20.63;3.90;;;;;;;30.33;29.41;102256.06;5194900;28;20404;-40
2022/06/11 11:48:50;;;;;;;17.67;5.22;;;;;;;30.50;29.51;102271.59;5193916;28;20414;-38
2022/06/11 11:51:27;;;;;;;17.70;4.60;;;;;;;30.65;29.37;102273.72;5192304;28;20430;-41
2022/06/11 11:54:05;;;;;;;17.25;4.85;;;;;;;30.66;29.45;102276.22;5190526;28;20427;-45
2022/06/11 11:56:42;;;;;;;23.70;4.68;;;;;;;30.53;29.68;102265.63;5195449;28;20444;-41
2022/06/11 11:59:22;;;;;;;21.00;4.30;;;;;;;30.41;29.58;102251.28;5193254;28;20515;-37
2022/06/11 12:01:58;;;;;;;22.35;4.75;;;;;;;30.19;29.90;102227.47;5193043;28;20459;-40
2022/06/11 12:04:35;;;;;;;21.58;4.10;;;;;;;30.55;29.70;102269.78;5186488;28;21151;-41
2022/06/11 12:07:13;;;;;;;16.10;4.15;;;;;;;30.51;29.96;102262.34;5198625;28;20409;-40
2022/06/11 12:09:51;;;;;;;23.90;5.47;;;;;;;30.57;29.96;102266.81;5194392;28;20419;-38